AirNav  
 
 1219 users online  

6OR7 Schmidt Airport
Boring, Oregon, USA

GOING TO BORING?


FAA INFORMATION EFFECTIVE 18 MAY 2023

Location

FAA Identifier: 6OR7
Lat/Long: 45-27-10.4340N 122-19-16.0000W
45-27.173900N 122-19.266667W
45.4528983,-122.3211111
(estimated)
Elevation: 650 ft. / 198 m (estimated)
Variation: 19E (1990)
From city: 3 miles NE of BORING, OR
Time zone: UTC -7 (UTC -8 during Standard Time)
Zip code: 97009

Airport Operations

Airport use: Private use. Permission required prior to landing
Activation date: 02/1993
Control tower: no
ARTCC: SEATTLE CENTER
FSS: MC MINNVILLE FLIGHT SERVICE STATION
Attendance: UNATNDD
Wind indicator: yes
Segmented circle: no

Airport Communications

WX ASOS at TTD (7 nm NW): 135.625 (503-492-2887)
WX ASOS at PDX (14 nm NW): PHONE (503) 493-7687
WX ASOS at VUO (17 nm NW): 135.125 (360-696-1280)

Nearby radio navigation aids

VOR radial/distance  VOR name  Freq  Var
BTGr126/21.0BATTLE GROUND VORTAC116.6021E
UBGr057/28.3NEWBERG VOR/DME117.4021E

 
NDB name  Hdg/Dist  Freq  Var  ID
BANKS093/32.335616EPND .--. -. -..

Airport Services

Runway Information

Runway 7/25

Dimensions: 2300 x 55 ft. / 701 x 17 m
Surface: turf
RUNWAY 7  RUNWAY 25
Traffic pattern: leftleft
Obstructions: 25 ft. bldgnone

Airport Ownership and Management from official FAA records

Ownership: Privately-owned
Owner: J. FRANK SCHMIDT & SON CO.
9500 SE 327TH AVE
BORING, OR 97009
Phone 503-663-4128
Manager: JAN E BARKLEY
10486 SE TELFORD
BORING, OR 97009
Phone 503-260-0317

Airport Operational Statistics

Aircraft based on the field: 2
Single engine airplanes: 2
    

Additional Remarks

FOR CD CTC PORTLAND APCH AT 503-493-7545.

Instrument Procedures

There are no published instrument procedures at 6OR7.

Some nearby airports with instrument procedures:

KTTD - Portland-Troutdale Airport (7 nm NW)
KPDX - Portland International Airport (14 nm NW)
KVUO - Pearson Field Airport (17 nm NW)
KUAO - Aurora State Airport (23 nm SW)
KHIO - Portland-Hillsboro Airport (27 nm W)
 
Loc | Ops | Rwys | IFR | FBO | Links
Com | Nav | Svcs | Stats | Notes
Area around 6OR7 (Schmidt Airport)
 
Road maps at: MapQuest Bing Google
 
Aerial photo
WARNING: Photo may not be current or correct
Aerial photo of 6OR7 (Schmidt Airport)
Do you have a better or more recent aerial photo of Schmidt Airport that you would like to share? If so, please send us your photo.

 
Sectional chart

 
Airport distance calculator
Flying to Schmidt Airport? Find the distance to fly.

From to 6OR7

Sunrise and sunset
Times for 10-Jun-2023
 Local
(UTC-7)
 Zulu
(UTC)
Morning civil twilight04:4411:44
Sunrise05:2212:22
Sunset20:5603:56
Evening civil twilight21:3304:33

Current date and time
Zulu (UTC)  10-Jun-2023 16:52:47
Local (UTC-7)  10-Jun-2023 09:52:47
 
METAR
KTTD 
7nm NW 
101553Z 00000KT 10SM CLR 16/09 A3009 RMK AO2 SLP190 T01560089
KPDX 
14nm NW 
101553Z 28004KT 10SM FEW015 SCT024 BKN230 16/09 A3009 RMK AO2 SLP189 T01560094
KVUO 
17nm NW 
101553Z AUTO 34004KT 10SM CLR 16/09 A3010 RMK AO2 SLP194 T01560089 $
TAF
KTTD 
7nm NW 
100520Z 1006/1106 VRB04KT P6SM BKN030 FM101200 VRB04KT P6SM BKN019 FM101800 31005KT P6SM BKN050 FM110000 32012KT P6SM FEW250
KPDX 
14nm NW 
101125Z 1012/1112 32005KT P6SM SCT015 BKN035 FM101300 32004KT P6SM BKN025 FM101800 31006KT P6SM BKN045 FM110000 33009KT P6SM SCT100
NOTAMs
Click for the latest NOTAMs
NOTAMs are issued by the DoD/FAA and will open in a separate window not controlled by AirNav.

 

 
 

Would you like to see your business listed on this page?

 If your business provides an interesting product or service to pilots, flight crews, aircraft, or users of the Schmidt Airport, you should consider listing it here.  To start the listing process, click on the button below
 
Add a business
 

Other Pages about Schmidt Airport

Update a link
 
Copyright © AirNav, LLC. All rights reserved. Privacy Policy  Contact